Time,TemperatureF,DewpointF,PressureIn,WindDirection,WindDirectionDegrees,WindSpeedMPH,WindSpeedGustMPH,Humidity,HourlyPrecipIn,Conditions,Clouds,dailyrainin,SolarRadiationWatts/m^2,SoftwareType,DateUTC
2013-03-09 00:54:00,35.6,31.8,30.34,ESE,115,0.0,0.0,86,0.00,,OVC018,0.00,0.00,VWS V14.00,2013-03-09 05:54:00,
2013-03-09 01:54:00,34.0,31.1,30.34,ESE,115,0.0,0.0,89,0.00,,OVC018,0.00,0.00,VWS V14.00,2013-03-09 06:54:00,
2013-03-09 02:54:00,33.4,30.5,30.33,NE,43,0.0,0.0,89,0.00,,OVC018,0.00,0.00,VWS V14.00,2013-03-09 07:54:00,
2013-03-09 03:54:00,34.2,30.7,30.32,ENE,57,0.0,0.0,87,0.00,,OVC018,0.00,0.00,VWS V14.00,2013-03-09 08:54:00,
2013-03-09 04:54:00,35.7,30.1,30.31,East,82,0.0,0.0,80,0.00,,OVC018,0.00,0.00,VWS V14.00,2013-03-09 09:54:00,
2013-03-09 05:54:00,35.5,29.6,30.34,East,91,0.0,0.0,79,0.00,,OVC018,0.00,0.00,VWS V14.00,2013-03-09 10:54:00,
2013-03-09 06:54:00,35.5,29.0,30.38,ESE,117,0.0,0.0,77,0.00,,OVC018,0.00,9.00,VWS V14.00,2013-03-09 11:54:00,
2013-03-09 07:54:00,38.2,30.7,30.41,NNW,328,0.0,0.0,74,0.00,,OVC018,0.00,144.00,VWS V14.00,2013-03-09 12:54:00,
2013-03-09 08:54:00,44.6,32.0,30.42,ESE,122,4.0,4.0,61,0.00,,OVC018,0.00,355.00,VWS V14.00,2013-03-09 13:54:00,
2013-03-09 09:54:00,49.1,32.2,30.42,SSE,160,3.0,5.0,52,0.00,,OVC018,0.00,543.00,VWS V14.00,2013-03-09 14:54:00,
2013-03-09 10:54:00,52.8,32.6,30.42,SE,134,2.0,2.0,46,0.00,,OVC018,0.00,693.00,VWS V14.00,2013-03-09 15:54:00,
2013-03-09 11:54:00,56.3,33.5,30.40,ENE,65,2.0,4.0,42,0.00,,OVC018,0.00,796.00,VWS V14.00,2013-03-09 16:54:00,
2013-03-09 12:54:00,59.6,32.6,30.37,ESE,121,4.0,7.0,36,0.00,,OVC018,0.00,805.00,VWS V14.00,2013-03-09 17:54:00,
2013-03-09 13:54:00,61.8,32.4,30.33,ENE,78,3.0,3.0,33,0.00,,OVC018,0.00,766.00,VWS V14.00,2013-03-09 18:54:00,
2013-03-09 14:54:00,64.2,33.8,30.31,East,94,0.0,0.0,32,0.00,,OVC018,0.00,594.00,VWS V14.00,2013-03-09 19:54:00,
2013-03-09 15:54:00,64.7,30.0,30.29,SSW,197,1.0,5.0,27,0.00,,OVC018,0.00,483.00,VWS V14.00,2013-03-09 20:54:00,
2013-03-09 16:54:00,65.2,31.3,30.27,East,81,0.0,0.0,28,0.00,,OVC018,0.00,274.00,VWS V14.00,2013-03-09 21:54:00,
2013-03-09 17:54:00,63.3,33.0,30.27,SSE,159,0.0,0.0,32,0.00,,OVC018,0.00,47.00,VWS V14.00,2013-03-09 22:54:00,
2013-03-09 18:54:00,57.2,33.7,30.30,NE,49,0.0,0.0,41,0.00,,OVC018,0.00,0.00,VWS V14.00,2013-03-09 23:54:00,
2013-03-09 19:54:00,53.6,36.4,30.31,East,84,0.0,0.0,52,0.00,,OVC018,0.00,0.00,VWS V14.00,2013-03-10 00:54:00,
2013-03-09 20:54:00,51.1,36.4,30.31,East,84,0.0,0.0,57,0.00,,OVC018,0.00,0.00,VWS V14.00,2013-03-10 01:54:00,
2013-03-09 21:54:00,48.6,36.6,30.30,East,84,0.0,0.0,63,0.00,,OVC018,0.00,0.00,VWS V14.00,2013-03-10 02:54:00,
2013-03-09 22:54:00,45.3,37.5,30.31,East,84,0.0,0.0,74,0.00,,OVC018,0.00,0.00,VWS V14.00,2013-03-10 03:54:00,
2013-03-09 23:54:00,44.5,38.1,30.29,East,84,0.0,0.0,78,0.00,,OVC018,0.00,0.00,VWS V14.00,2013-03-10 04:54:00,